Time;durP1;ratioP1;P1;durP2;ratioP2;P2;SDS_P1;SDS_P2;PMS_P1;PMS_P2;Temp;Humidity;BMP_temperature;BMP_pressure;BME280_temperature;BME280_humidity;BME280_pressure;Samples;Min_cycle;Max_cycle;Signal;HPM_P1;HPM_P2
2023/12/30 00:00:22;;;;;;;6.97;1.70;;;6.30;99.90;;;;;;5075453;28;20483;-72
2023/12/30 00:02:48;;;;;;;7.47;2.30;;;6.40;99.90;;;;;;5073841;28;20095;-72
2023/12/30 00:05:17;;;;;;;10.50;2.30;;;6.30;99.90;;;;;;5074975;28;20059;-72
2023/12/30 00:07:46;;;;;;;13.95;2.53;;;6.40;99.90;;;;;;5074136;28;20056;-72
2023/12/30 00:10:12;;;;;;;12.32;2.38;;;6.30;99.90;;;;;;5074821;28;20449;-72
2023/12/30 00:12:37;;;;;;;10.00;2.88;;;6.30;99.90;;;;;;5075095;28;20120;-72
2023/12/30 00:15:03;;;;;;;12.10;2.92;;;6.30;99.90;;;;;;5073502;28;20045;-72
2023/12/30 00:17:29;;;;;;;10.90;2.60;;;6.30;99.90;;;;;;5074141;28;20141;-72
2023/12/30 00:19:55;;;;;;;11.45;2.70;;;6.20;99.90;;;;;;5073628;28;20114;-78
2023/12/30 00:22:20;;;;;;;11.63;3.15;;;6.30;99.90;;;;;;5073560;28;20052;-72
2023/12/30 00:24:46;;;;;;;11.32;2.40;;;6.20;99.90;;;;;;5074111;28;20048;-73
2023/12/30 00:27:12;;;;;;;10.63;2.50;;;6.20;99.90;;;;;;5074607;28;20383;-72
2023/12/30 00:29:39;;;;;;;9.57;2.72;;;6.20;99.90;;;;;;5040608;28;20052;-72
2023/12/30 00:32:05;;;;;;;11.10;2.63;;;6.20;99.90;;;;;;5073503;28;20060;-72
2023/12/30 00:34:34;;;;;;;10.52;2.95;;;6.30;99.90;;;;;;5073742;28;20480;-72
2023/12/30 00:37:00;;;;;;;10.90;2.53;;;6.20;99.90;;;;;;5073231;28;20066;-72
2023/12/30 00:39:26;;;;;;;7.65;2.55;;;6.20;99.90;;;;;;5073676;28;20127;-72
2023/12/30 00:41:51;;;;;;;14.48;3.00;;;6.30;99.90;;;;;;5073370;28;20147;-72
2023/12/30 00:44:17;;;;;;;15.10;2.40;;;6.30;99.90;;;;;;5073947;28;20078;-72
2023/12/30 00:46:43;;;;;;;12.43;2.40;;;6.20;99.90;;;;;;5074490;28;20122;-72
2023/12/30 00:49:09;;;;;;;8.98;2.55;;;6.20;99.90;;;;;;5074158;28;20052;-75
2023/12/30 00:51:35;;;;;;;8.88;2.38;;;6.20;99.90;;;;;;5074542;28;20087;-72
2023/12/30 00:54:01;;;;;;;14.40;2.60;;;6.30;99.90;;;;;;5072503;28;20139;-80
2023/12/30 00:56:27;;;;;;;14.25;3.10;;;6.30;99.90;;;;;;5074386;28;20040;-71
2023/12/30 00:58:53;;;;;;;10.77;2.33;;;6.30;99.90;;;;;;5073338;28;20055;-72
2023/12/30 01:01:19;;;;;;;12.75;2.03;;;6.30;99.90;;;;;;5072602;28;20044;-71
2023/12/30 01:03:44;;;;;;;11.32;2.60;;;6.30;99.90;;;;;;5074339;28;20139;-72
2023/12/30 01:06:10;;;;;;;9.30;2.35;;;6.20;99.90;;;;;;5073747;28;20055;-72
2023/12/30 01:08:36;;;;;;;9.75;2.15;;;6.20;99.90;;;;;;5056205;28;20075;-72
2023/12/30 01:11:02;;;;;;;8.90;2.30;;;6.30;99.90;;;;;;5039928;28;20048;-77
2023/12/30 01:13:28;;;;;;;6.90;2.30;;;6.20;99.90;;;;;;5072709;28;20501;-72
2023/12/30 01:15:54;;;;;;;11.70;1.95;;;6.20;99.90;;;;;;5073894;28;20083;-72
2023/12/30 01:18:19;;;;;;;11.48;2.38;;;6.20;99.90;;;;;;5073638;28;20048;-72
2023/12/30 01:20:45;;;;;;;11.18;2.40;;;6.20;99.90;;;;;;5072671;28;20059;-72
2023/12/30 01:23:11;;;;;;;8.13;2.08;;;6.20;99.90;;;;;;5055790;28;20048;-72
2023/12/30 01:25:38;;;;;;;10.10;2.10;;;6.20;99.90;;;;;;5073664;28;20094;-72
2023/12/30 01:28:05;;;;;;;9.63;2.67;;;6.20;99.90;;;;;;5056339;28;20056;-77
2023/12/30 01:30:31;;;;;;;8.88;2.28;;;6.20;99.90;;;;;;5055990;28;20144;-72
2023/12/30 01:32:56;;;;;;;8.23;2.40;;;6.20;99.90;;;;;;5055816;28;20045;-72
2023/12/30 01:35:22;;;;;;;9.43;2.45;;;6.20;99.90;;;;;;5071981;28;20041;-72
2023/12/30 01:37:48;;;;;;;17.02;3.20;;;6.20;99.90;;;;;;5073486;28;20042;-72
2023/12/30 01:40:14;;;;;;;7.82;2.25;;;6.20;99.90;;;;;;5072158;28;20089;-72
2023/12/30 01:42:40;;;;;;;12.43;2.65;;;6.20;99.90;;;;;;5073206;28;20067;-72
2023/12/30 01:45:07;;;;;;;9.90;2.50;;;6.20;99.90;;;;;;5071785;28;20060;-77
2023/12/30 01:47:34;;;;;;;8.52;2.60;;;6.20;99.90;;;;;;5072259;28;20052;-72
2023/12/30 01:49:59;;;;;;;9.13;2.80;;;6.20;99.90;;;;;;5072373;28;20326;-72
2023/12/30 01:52:26;;;;;;;13.32;3.13;;;6.20;99.90;;;;;;5072908;28;20055;-72
2023/12/30 01:54:51;;;;;;;13.25;3.45;;;6.20;99.90;;;;;;5055688;28;20052;-72
2023/12/30 01:57:17;;;;;;;12.00;2.45;;;6.20;99.90;;;;;;5071763;28;20051;-72
2023/12/30 01:59:44;;;;;;;12.38;2.70;;;6.20;99.90;;;;;;5072120;28;20202;-71
2023/12/30 02:02:10;;;;;;;8.75;2.53;;;6.30;99.90;;;;;;5072685;28;20129;-78
2023/12/30 02:04:38;;;;;;;13.95;2.80;;;6.30;99.90;;;;;;5071234;28;20494;-70
2023/12/30 02:07:03;;;;;;;9.38;2.60;;;6.30;99.90;;;;;;5071670;28;20385;-70
2023/12/30 02:09:29;;;;;;;11.48;2.95;;;6.40;99.90;;;;;;5072457;28;20091;-70
2023/12/30 02:11:57;;;;;;;15.80;3.88;;;6.40;99.90;;;;;;5072802;28;20128;-71
2023/12/30 02:14:27;;;;;;;11.77;2.97;;;6.40;99.90;;;;;;5072228;28;20495;-70
2023/12/30 02:16:53;;;;;;;9.63;2.70;;;6.40;99.90;;;;;;5055254;28;20127;-70
2023/12/30 02:19:18;;;;;;;12.15;2.67;;;6.40;99.90;;;;;;5071001;28;20049;-71
2023/12/30 02:21:45;;;;;;;10.57;2.92;;;6.50;99.90;;;;;;5072560;28;20037;-70
2023/12/30 02:24:10;;;;;;;9.02;2.70;;;6.50;99.90;;;;;;5071452;28;20091;-70
2023/12/30 02:26:36;;;;;;;11.38;2.85;;;6.50;99.90;;;;;;5071297;28;20074;-70
2023/12/30 02:29:02;;;;;;;11.18;2.65;;;6.50;99.90;;;;;;5071211;28;20135;-70
2023/12/30 02:31:27;;;;;;;19.17;3.05;;;6.50;99.90;;;;;;5072103;28;20052;-74
2023/12/30 02:33:53;;;;;;;12.82;2.63;;;6.50;99.90;;;;;;5072504;28;20135;-71
2023/12/30 02:36:20;;;;;;;14.15;3.53;;;6.60;99.90;;;;;;5070792;28;20044;-71
2023/12/30 02:38:45;;;;;;;10.93;3.15;;;6.60;99.90;;;;;;5071345;28;20059;-71
2023/12/30 02:41:11;;;;;;;13.57;3.47;;;6.60;99.90;;;;;;5072296;28;20041;-71
2023/12/30 02:43:59;;;;;;;11.65;2.40;;;6.70;99.90;;;;;;5054162;28;20395;-71
2023/12/30 02:46:24;;;;;;;14.50;2.42;;;6.70;99.90;;;;;;5071046;28;20095;-71
2023/12/30 02:48:50;;;;;;;9.90;2.53;;;6.70;99.90;;;;;;5070719;28;20083;-71
2023/12/30 02:51:17;;;;;;;11.63;3.28;;;6.70;99.90;;;;;;5072096;28;20118;-76
2023/12/30 02:53:42;;;;;;;14.25;2.78;;;6.70;99.90;;;;;;5072244;28;20041;-70
2023/12/30 02:56:21;;;;;;;12.10;2.72;;;6.70;99.90;;;;;;5054593;28;20053;-71
2023/12/30 02:58:59;;;;;;;11.02;3.28;;;6.70;99.90;;;;;;5071006;28;20048;-70
2023/12/30 03:01:27;;;;;;;11.55;2.75;;;6.70;99.90;;;;;;5071232;28;20567;-71
2023/12/30 03:03:54;;;;;;;10.50;2.78;;;6.80;99.90;;;;;;5070881;28;20048;-70
2023/12/30 03:06:21;;;;;;;15.80;3.00;;;6.70;99.90;;;;;;5071192;28;20407;-74
2023/12/30 03:08:47;;;;;;;17.70;2.50;;;6.70;99.90;;;;;;5070704;28;20059;-70
2023/12/30 03:11:13;;;;;;;8.65;2.60;;;6.80;99.90;;;;;;5071686;28;20076;-71
2023/12/30 03:13:39;;;;;;;10.00;2.35;;;6.80;99.90;;;;;;5071266;28;20221;-71
2023/12/30 03:16:05;;;;;;;11.60;2.92;;;6.80;99.90;;;;;;5073441;28;20051;-71
2023/12/30 03:18:31;;;;;;;14.82;2.58;;;6.80;99.90;;;;;;5074445;28;20044;-70
2023/12/30 03:20:57;;;;;;;9.52;2.08;;;6.80;99.90;;;;;;5075132;28;20149;-70
2023/12/30 03:23:23;;;;;;;12.32;2.47;;;6.90;99.90;;;;;;5075583;28;20102;-71
2023/12/30 03:25:50;;;;;;;12.43;3.03;;;6.90;99.90;;;;;;5076022;28;20037;-71
2023/12/30 03:28:15;;;;;;;11.18;2.58;;;6.90;99.90;;;;;;5075511;28;20376;-70
2023/12/30 03:30:41;;;;;;;12.45;2.80;;;6.90;99.90;;;;;;5074453;28;20127;-71
2023/12/30 03:33:07;;;;;;;15.85;2.47;;;6.90;99.90;;;;;;5058310;28;20442;-71
2023/12/30 03:35:33;;;;;;;12.73;2.92;;;6.90;99.90;;;;;;5074418;28;20075;-70
2023/12/30 03:37:59;;;;;;;10.57;2.00;;;6.90;99.90;;;;;;5075653;28;20414;-70
2023/12/30 03:40:25;;;;;;;12.02;2.45;;;6.90;99.90;;;;;;5057438;28;20082;-73
2023/12/30 03:42:51;;;;;;;14.88;2.40;;;7.00;99.90;;;;;;5076285;28;20080;-70
2023/12/30 03:45:16;;;;;;;12.85;2.47;;;6.90;99.90;;;;;;5074420;28;20056;-70
2023/12/30 03:47:42;;;;;;;13.07;2.30;;;6.90;99.90;;;;;;5075575;28;20053;-70
2023/12/30 03:50:08;;;;;;;12.00;2.20;;;6.90;99.90;;;;;;5075650;28;20399;-70
2023/12/30 03:52:34;;;;;;;12.13;3.08;;;6.90;99.90;;;;;;5074235;28;20131;-70
2023/12/30 03:54:59;;;;;;;13.02;2.80;;;6.90;99.90;;;;;;5074264;28;20123;-70
2023/12/30 03:57:25;;;;;;;16.33;3.20;;;6.90;99.90;;;;;;5075643;28;20059;-76
2023/12/30 03:59:51;;;;;;;17.52;2.70;;;6.90;99.90;;;;;;5075330;28;20139;-70
2023/12/30 04:02:20;;;;;;;12.50;3.17;;;6.90;99.90;;;;;;5074216;28;20123;-70
2023/12/30 04:04:47;;;;;;;14.98;3.30;;;6.90;99.90;;;;;;5073730;28;20045;-70
2023/12/30 04:07:13;;;;;;;12.52;3.63;;;6.90;99.90;;;;;;5075381;28;20380;-70
2023/12/30 04:09:38;;;;;;;12.38;3.10;;;6.90;99.90;;;;;;5074807;28;20048;-70
2023/12/30 04:12:05;;;;;;;10.85;3.15;;;6.90;99.90;;;;;;5074247;28;20399;-70
2023/12/30 04:14:30;;;;;;;14.93;3.53;;;6.90;99.90;;;;;;5073517;28;20056;-71
2023/12/30 04:16:56;;;;;;;13.82;3.63;;;6.90;99.90;;;;;;5073573;28;20121;-70
2023/12/30 04:19:23;;;;;;;18.92;3.35;;;6.90;99.90;;;;;;5074716;28;20040;-70
2023/12/30 04:21:49;;;;;;;10.82;2.90;;;6.90;99.90;;;;;;5073211;28;20047;-70
2023/12/30 04:24:18;;;;;;;13.48;3.05;;;6.80;99.90;;;;;;5074898;28;20044;-70
2023/12/30 04:26:45;;;;;;;14.30;2.97;;;6.80;99.90;;;;;;5056120;28;20045;-69
2023/12/30 04:29:11;;;;;;;10.65;2.70;;;6.70;99.90;;;;;;5056599;28;20119;-69
2023/12/30 04:31:37;;;;;;;15.23;3.00;;;6.70;99.90;;;;;;5074577;28;20044;-70
2023/12/30 04:34:02;;;;;;;13.50;3.13;;;6.70;99.90;;;;;;5074594;28;20135;-70
2023/12/30 04:36:28;;;;;;;15.27;4.07;;;6.70;99.90;;;;;;5074894;28;20045;-70
2023/12/30 04:38:54;;;;;;;13.38;2.83;;;6.70;99.90;;;;;;5074381;28;20499;-70
2023/12/30 04:41:20;;;;;;;14.05;3.30;;;6.70;99.90;;;;;;5073437;28;20041;-70
2023/12/30 04:43:45;;;;;;;14.50;2.60;;;6.80;99.90;;;;;;5072693;28;20044;-70
2023/12/30 04:46:12;;;;;;;12.27;2.53;;;6.80;99.90;;;;;;5072429;28;20056;-69
2023/12/30 04:48:38;;;;;;;17.33;3.30;;;6.80;99.90;;;;;;5072898;28;20201;-70
2023/12/30 04:51:04;;;;;;;18.95;3.20;;;6.80;99.90;;;;;;5074506;28;20127;-69
2023/12/30 04:53:29;;;;;;;15.15;2.92;;;6.80;99.90;;;;;;5074407;28;20131;-69
2023/12/30 04:55:55;;;;;;;16.40;3.10;;;6.90;99.90;;;;;;5073839;28;20364;-70
2023/12/30 04:58:21;;;;;;;16.95;3.20;;;6.90;99.90;;;;;;5074781;28;20391;-70
2023/12/30 05:00:46;;;;;;;11.00;2.58;;;6.90;99.90;;;;;;5073797;28;20127;-69
2023/12/30 05:03:13;;;;;;;14.13;2.85;;;6.90;99.90;;;;;;5074148;28;20048;-69
2023/12/30 05:05:39;;;;;;;14.10;3.83;;;6.90;99.90;;;;;;5072400;28;20434;-69
2023/12/30 05:08:06;;;;;;;19.83;3.13;;;6.90;99.90;;;;;;5074871;28;20052;-69
2023/12/30 05:10:33;;;;;;;12.65;3.05;;;6.90;99.90;;;;;;5074267;28;20425;-69
2023/12/30 05:12:59;;;;;;;19.42;4.10;;;6.90;99.90;;;;;;5056148;28;20049;-70
2023/12/30 05:15:25;;;;;;;15.20;3.13;;;6.90;99.90;;;;;;5074024;28;20048;-71
2023/12/30 05:17:51;;;;;;;15.60;3.58;;;6.90;99.90;;;;;;5073571;28;20051;-70
2023/12/30 05:20:17;;;;;;;17.38;3.50;;;6.90;99.90;;;;;;5072881;28;20070;-70
2023/12/30 05:22:43;;;;;;;13.13;3.10;;;7.00;99.90;;;;;;5072249;28;20041;-71
2023/12/30 05:25:09;;;;;;;15.77;3.92;;;7.00;99.90;;;;;;5073819;28;20099;-70
2023/12/30 05:27:38;;;;;;;20.05;3.00;;;7.00;99.90;;;;;;5073658;28;20056;-75
2023/12/30 05:30:08;;;;;;;11.82;2.83;;;6.90;99.90;;;;;;5072804;28;20060;-70
2023/12/30 05:32:37;;;;;;;13.23;2.92;;;7.00;99.90;;;;;;5073681;28;20037;-70
2023/12/30 05:35:03;;;;;;;12.80;2.53;;;6.90;99.90;;;;;;5072255;28;20548;-70
2023/12/30 05:37:29;;;;;;;18.15;3.72;;;6.90;99.90;;;;;;5072574;28;20130;-70
2023/12/30 05:39:54;;;;;;;16.75;3.33;;;6.90;99.90;;;;;;5073278;28;20083;-70
2023/12/30 05:42:20;;;;;;;16.00;2.92;;;6.90;99.90;;;;;;5073011;28;20045;-71
2023/12/30 05:44:47;;;;;;;13.60;3.03;;;6.90;99.90;;;;;;5071880;28;20056;-70
2023/12/30 05:47:13;;;;;;;10.02;2.70;;;6.90;99.90;;;;;;5073064;28;20487;-71
2023/12/30 05:49:40;;;;;;;17.52;3.67;;;6.90;99.90;;;;;;5073527;28;20047;-72
2023/12/30 05:52:07;;;;;;;15.65;3.63;;;6.80;99.90;;;;;;5072034;28;20064;-70
2023/12/30 05:54:33;;;;;;;20.15;3.63;;;6.80;99.90;;;;;;5072046;28;20044;-70
2023/12/30 05:57:00;;;;;;;16.13;3.22;;;6.90;99.90;;;;;;5071628;28;20048;-76
2023/12/30 05:59:26;;;;;;;12.05;3.05;;;6.80;99.90;;;;;;5072820;28;20498;-70
2023/12/30 06:01:52;;;;;;;17.55;3.50;;;6.80;99.90;;;;;;5072637;28;20049;-70
2023/12/30 06:04:18;;;;;;;14.65;3.17;;;6.80;99.90;;;;;;5071662;28;20050;-70
2023/12/30 06:06:44;;;;;;;11.77;3.20;;;6.80;99.90;;;;;;5071852;28;20345;-77
2023/12/30 06:09:10;;;;;;;15.57;2.95;;;6.80;99.90;;;;;;5071839;28;20052;-70
2023/12/30 06:11:36;;;;;;;16.45;3.22;;;6.80;99.90;;;;;;5073116;28;20435;-70
2023/12/30 06:14:01;;;;;;;15.40;2.63;;;6.80;99.90;;;;;;5072446;28;20059;-70
2023/12/30 06:16:27;;;;;;;11.68;2.72;;;6.80;99.90;;;;;;5072849;28;20052;-70
2023/12/30 06:18:53;;;;;;;9.88;2.90;;;6.80;99.90;;;;;;5072379;28;20471;-70
2023/12/30 06:21:19;;;;;;;19.08;3.58;;;6.90;99.90;;;;;;5072704;28;20040;-70
2023/12/30 06:23:44;;;;;;;17.60;3.33;;;6.90;99.90;;;;;;5071834;28;20053;-70
2023/12/30 06:26:10;;;;;;;14.95;3.08;;;6.90;99.90;;;;;;5072199;28;20174;-70
2023/12/30 06:28:35;;;;;;;13.23;3.08;;;6.90;99.90;;;;;;5071524;28;20051;-70
2023/12/30 06:31:01;;;;;;;17.23;3.40;;;6.90;99.90;;;;;;5070867;28;20123;-70
2023/12/30 06:33:27;;;;;;;10.98;2.78;;;6.80;99.90;;;;;;5055071;28;20082;-70
2023/12/30 06:35:52;;;;;;;14.55;3.40;;;6.80;99.90;;;;;;5070665;28;20049;-70
2023/12/30 06:38:18;;;;;;;12.70;3.22;;;6.80;99.90;;;;;;5071401;28;20049;-70
2023/12/30 06:40:47;;;;;;;13.93;2.53;;;6.80;99.90;;;;;;5054532;28;20041;-70
2023/12/30 06:43:13;;;;;;;14.85;2.58;;;6.80;99.90;;;;;;5072362;28;20132;-70
2023/12/30 06:45:39;;;;;;;12.43;2.90;;;6.70;99.90;;;;;;5070912;28;20132;-70
2023/12/30 06:48:05;;;;;;;14.52;2.80;;;6.70;99.90;;;;;;5070662;28;20535;-70
2023/12/30 06:50:31;;;;;;;17.23;3.65;;;6.80;99.90;;;;;;5071743;28;20127;-71
2023/12/30 06:52:59;;;;;;;19.05;3.35;;;6.80;99.90;;;;;;5038388;28;20140;-70
2023/12/30 06:55:25;;;;;;;15.70;2.67;;;6.80;99.90;;;;;;5054332;28;20127;-70
2023/12/30 06:57:51;;;;;;;15.45;3.08;;;6.80;99.90;;;;;;5071946;28;20131;-76
2023/12/30 07:00:17;;;;;;;19.10;3.08;;;6.80;99.90;;;;;;5070963;28;20087;-70
2023/12/30 07:02:44;;;;;;;14.00;3.28;;;6.80;99.90;;;;;;5070746;28;20041;-70
2023/12/30 07:05:09;;;;;;;15.85;4.03;;;6.70;99.90;;;;;;5070657;28;20146;-70
2023/12/30 07:07:35;;;;;;;16.88;3.15;;;6.70;99.90;;;;;;5071983;28;20461;-70
2023/12/30 07:10:03;;;;;;;13.48;3.47;;;6.70;99.90;;;;;;5070759;28;20049;-70
2023/12/30 07:12:28;;;;;;;10.82;2.85;;;6.70;99.90;;;;;;5054432;28;20547;-70
2023/12/30 07:14:54;;;;;;;11.98;3.13;;;6.70;99.90;;;;;;5071914;28;20094;-76
2023/12/30 07:17:20;;;;;;;14.25;3.53;;;6.70;99.90;;;;;;5071546;28;20048;-70
2023/12/30 07:19:46;;;;;;;15.35;4.00;;;6.70;99.90;;;;;;5070641;28;20048;-70
2023/12/30 07:22:12;;;;;;;11.13;3.25;;;6.70;99.90;;;;;;5070288;28;20037;-70
2023/12/30 07:24:38;;;;;;;14.13;3.80;;;6.70;99.90;;;;;;5071809;28;20423;-71
2023/12/30 07:27:05;;;;;;;12.63;3.33;;;6.70;99.90;;;;;;5070360;28;20052;-71
2023/12/30 07:29:30;;;;;;;14.23;4.25;;;6.70;99.90;;;;;;5070775;28;20436;-71
2023/12/30 07:31:56;;;;;;;16.55;3.90;;;6.70;99.90;;;;;;5072010;28;20145;-78
2023/12/30 07:34:22;;;;;;;17.58;4.07;;;6.70;99.90;;;;;;5071667;28;20048;-71
2023/12/30 07:36:48;;;;;;;17.10;3.60;;;6.70;99.90;;;;;;5070647;28;20487;-71
2023/12/30 07:39:13;;;;;;;14.43;3.17;;;6.70;99.90;;;;;;5070378;28;20056;-71
2023/12/30 07:41:39;;;;;;;16.00;3.30;;;6.70;99.90;;;;;;5071983;28;20132;-71
2023/12/30 07:44:05;;;;;;;17.85;3.85;;;6.70;99.90;;;;;;5071343;28;20048;-71
2023/12/30 07:46:31;;;;;;;10.45;2.70;;;6.60;99.90;;;;;;5070095;28;20049;-71
2023/12/30 07:48:57;;;;;;;17.67;3.45;;;6.60;99.90;;;;;;5070505;28;20095;-71
2023/12/30 07:51:23;;;;;;;9.98;3.30;;;6.60;99.90;;;;;;5071276;28;20060;-71
2023/12/30 07:53:49;;;;;;;13.77;3.30;;;6.60;99.90;;;;;;5071412;28;20514;-71
2023/12/30 07:56:16;;;;;;;14.85;3.63;;;6.70;99.90;;;;;;5071228;28;20045;-71
2023/12/30 07:58:42;;;;;;;14.68;3.30;;;6.70;99.90;;;;;;5070205;28;20098;-72
2023/12/30 08:01:08;;;;;;;14.32;3.35;;;6.70;99.90;;;;;;5070125;28;20049;-71
2023/12/30 08:03:34;;;;;;;15.10;3.17;;;6.70;99.90;;;;;;5073775;28;20527;-71
2023/12/30 08:06:00;;;;;;;17.45;3.13;;;6.70;99.90;;;;;;5074309;28;20095;-71
2023/12/30 08:08:25;;;;;;;13.00;3.05;;;6.70;99.90;;;;;;5074827;28;20067;-71
2023/12/30 08:10:51;;;;;;;12.68;3.25;;;6.70;99.90;;;;;;5075356;28;20048;-71
2023/12/30 08:13:16;;;;;;;12.25;3.20;;;6.70;99.90;;;;;;5057280;28;20044;-71
2023/12/30 08:15:42;;;;;;;15.02;3.40;;;6.60;99.90;;;;;;5073661;28;20056;-72
2023/12/30 08:18:08;;;;;;;13.90;3.15;;;6.60;99.90;;;;;;5074672;28;20116;-71
2023/12/30 08:20:34;;;;;;;11.73;3.10;;;6.60;99.90;;;;;;5073682;28;20052;-71
2023/12/30 08:23:00;;;;;;;12.88;2.80;;;6.60;99.90;;;;;;5075179;28;20052;-71
2023/12/30 08:25:25;;;;;;;9.88;2.60;;;6.60;99.90;;;;;;5074647;28;20048;-71
2023/12/30 08:27:51;;;;;;;15.15;3.03;;;6.70;99.90;;;;;;5073711;28;20076;-71
2023/12/30 08:30:17;;;;;;;12.18;2.80;;;6.70;99.90;;;;;;5074473;28;20131;-71
2023/12/30 08:32:42;;;;;;;21.25;3.13;;;6.70;99.90;;;;;;5073628;28;20051;-75
2023/12/30 08:35:10;;;;;;;10.52;2.47;;;6.70;99.90;;;;;;5073123;28;20048;-73
2023/12/30 08:37:36;;;;;;;10.75;3.72;;;6.70;99.90;;;;;;5074777;28;20131;-69
2023/12/30 08:40:06;;;;;;;14.15;2.70;;;6.80;99.90;;;;;;5073512;28;20131;-70
2023/12/30 08:42:34;;;;;;;14.30;3.22;;;6.80;99.90;;;;;;5073017;28;20051;-69
2023/12/30 08:45:01;;;;;;;10.00;2.95;;;6.70;99.90;;;;;;5073342;28;20060;-72
2023/12/30 08:47:31;;;;;;;12.65;2.90;;;6.80;99.90;;;;;;5074136;28;20067;-70
2023/12/30 08:49:57;;;;;;;13.45;3.13;;;6.80;99.90;;;;;;5073682;28;20049;-70
2023/12/30 08:52:23;;;;;;;18.25;2.90;;;6.80;99.90;;;;;;5072652;28;20460;-70
2023/12/30 08:54:49;;;;;;;11.23;2.20;;;6.80;99.90;;;;;;5074347;28;20048;-70
2023/12/30 08:57:14;;;;;;;13.15;2.70;;;6.80;99.90;;;;;;5073849;28;20135;-70
2023/12/30 08:59:40;;;;;;;12.38;2.72;;;6.90;99.90;;;;;;5074060;28;20044;-69
2023/12/30 09:02:06;;;;;;;9.23;2.15;;;6.80;99.90;;;;;;5071742;28;20090;-70
2023/12/30 09:04:31;;;;;;;14.93;2.35;;;6.80;99.90;;;;;;5072056;28;20135;-71
2023/12/30 09:06:57;;;;;;;13.35;2.90;;;6.90;99.90;;;;;;5072585;28;20040;-71
2023/12/30 09:09:23;;;;;;;9.98;2.30;;;6.90;99.90;;;;;;5072570;28;20044;-72
2023/12/30 09:11:48;;;;;;;13.13;2.90;;;6.90;99.90;;;;;;5072809;28;20121;-71
2023/12/30 09:14:14;;;;;;;9.52;2.72;;;6.90;99.90;;;;;;5072190;28;20064;-73
2023/12/30 09:16:40;;;;;;;11.07;2.30;;;6.90;99.90;;;;;;5072689;28;20098;-72
2023/12/30 09:19:05;;;;;;;16.40;2.35;;;6.90;99.90;;;;;;5056253;28;20110;-72
2023/12/30 09:21:31;;;;;;;13.60;2.35;;;6.90;99.90;;;;;;5073385;28;20123;-72
2023/12/30 09:23:57;;;;;;;8.13;2.30;;;6.90;99.90;;;;;;5039304;28;20044;-71
2023/12/30 09:26:23;;;;;;;13.95;2.47;;;6.90;99.90;;;;;;5072346;28;20063;-73
2023/12/30 09:28:49;;;;;;;12.57;2.67;;;6.90;99.90;;;;;;5072730;28;20041;-72
2023/12/30 09:31:14;;;;;;;17.30;2.65;;;7.00;99.90;;;;;;5055847;28;20102;-79
2023/12/30 09:33:40;;;;;;;14.50;3.05;;;7.00;99.90;;;;;;5072515;28;20041;-73
2023/12/30 09:36:07;;;;;;;14.82;2.90;;;7.00;99.90;;;;;;5055957;28;20056;-74
2023/12/30 09:38:33;;;;;;;12.02;3.30;;;7.00;99.90;;;;;;5072337;28;20087;-74
2023/12/30 09:40:59;;;;;;;9.13;2.30;;;7.00;99.90;;;;;;5072457;28;20465;-75
2023/12/30 09:43:27;;;;;;;13.88;2.40;;;7.10;99.90;;;;;;5072040;28;20468;-76
2023/12/30 09:45:54;;;;;;;14.30;2.80;;;7.10;99.90;;;;;;5071988;28;20060;-76
2023/12/30 09:48:24;;;;;;;12.95;2.97;;;7.10;99.90;;;;;;5072194;28;20156;-76
2023/12/30 09:50:51;;;;;;;13.35;2.40;;;7.20;99.90;;;;;;5072387;28;20052;-75
2023/12/30 09:53:19;;;;;;;11.88;2.47;;;7.20;99.90;;;;;;5055470;28;20044;-76
2023/12/30 09:55:50;;;;;;;12.20;2.25;;;7.20;99.90;;;;;;5072086;28;20041;-74
2023/12/30 09:58:17;;;;;;;16.15;2.78;;;7.30;99.90;;;;;;5072792;28;20505;-79
2023/12/30 10:00:43;;;;;;;11.70;2.53;;;7.30;99.90;;;;;;5055231;28;20059;-79
2023/12/30 10:03:21;;;;;;;14.20;2.63;;;7.30;99.90;;;;;;5055332;28;20037;-79
2023/12/30 10:05:47;;;;;;;13.65;2.95;;;7.30;99.90;;;;;;5056746;28;20040;-79
2023/12/30 10:08:13;;;;;;;11.32;2.55;;;7.40;99.90;;;;;;5038865;28;20190;-79
2023/12/30 10:10:52;;;;;;;13.13;2.80;;;7.40;99.90;;;;;;5055279;28;20201;-79
2023/12/30 10:13:21;;;;;;;10.13;2.45;;;7.40;99.90;;;;;;5056286;28;20148;-79
2023/12/30 10:15:48;;;;;;;12.50;2.58;;;7.50;99.90;;;;;;5072051;28;20048;-79
2023/12/30 10:18:15;;;;;;;14.65;2.90;;;7.60;99.90;;;;;;5071729;28;20479;-79
2023/12/30 10:20:45;;;;;;;14.20;2.42;;;7.50;99.90;;;;;;5071202;28;20502;-83
2023/12/30 10:23:11;;;;;;;12.32;2.72;;;7.60;99.90;;;;;;5071260;28;20048;-77
2023/12/30 10:25:37;;;;;;;13.40;2.80;;;7.60;99.90;;;;;;5070351;28;20045;-80
2023/12/30 10:28:03;;;;;;;12.30;2.25;;;7.60;99.90;;;;;;5071391;28;20133;-77
2023/12/30 10:30:30;;;;;;;18.10;2.83;;;7.70;99.90;;;;;;5070689;28;20056;-78
2023/12/30 10:33:13;;;;;;;12.07;2.65;;;7.70;99.90;;;;;;5071437;28;20167;-78
2023/12/30 10:35:42;;;;;;;12.55;2.33;;;7.60;99.90;;;;;;5070781;28;20044;-77
2023/12/30 10:38:09;;;;;;;15.23;2.58;;;7.70;99.90;;;;;;5070824;28;20055;-79
2023/12/30 10:40:36;;;;;;;12.60;2.58;;;7.60;99.90;;;;;;5070621;28;20045;-79
2023/12/30 10:43:02;;;;;;;12.57;2.58;;;7.70;99.90;;;;;;5054056;28;20036;-78
2023/12/30 10:45:28;;;;;;;15.35;2.67;;;7.70;99.90;;;;;;5036821;28;20099;-82
2023/12/30 10:47:59;;;;;;;12.25;2.70;;;7.70;99.90;;;;;;5053811;28;20084;-81
2023/12/30 10:50:26;;;;;;;11.82;2.60;;;7.70;99.90;;;;;;5054787;28;20411;-80
2023/12/30 10:53:07;;;;;;;11.52;2.75;;;7.70;99.90;;;;;;5071210;28;20055;-81
2023/12/30 10:55:34;;;;;;;8.80;2.25;;;7.70;99.90;;;;;;5070935;28;20055;-78
2023/12/30 10:58:06;;;;;;;10.00;2.28;;;7.70;99.90;;;;;;5071262;28;20134;-77
2023/12/30 11:00:36;;;;;;;10.82;2.42;;;7.70;99.90;;;;;;5070387;28;20078;-81
2023/12/30 11:03:05;;;;;;;9.73;2.38;;;7.80;99.90;;;;;;5070681;28;20048;-80
2023/12/30 11:06:01;;;;;;;14.05;2.50;;;7.80;99.90;;;;;;5053945;28;20049;-81
2023/12/30 11:08:28;;;;;;;10.35;2.70;;;7.90;99.90;;;;;;5071185;28;20052;-81
2023/12/30 11:10:56;;;;;;;10.95;2.78;;;7.90;99.90;;;;;;5070630;28;20040;-78
2023/12/30 11:13:21;;;;;;;12.32;2.50;;;7.90;99.90;;;;;;5071290;28;20056;-78
2023/12/30 11:15:47;;;;;;;12.27;2.50;;;7.90;99.90;;;;;;5070872;28;20373;-79
2023/12/30 11:18:13;;;;;;;8.10;2.00;;;8.00;99.90;;;;;;5054596;28;20063;-77
2023/12/30 11:20:46;;;;;;;9.82;2.50;;;8.00;99.90;;;;;;5070880;28;20048;-79
2023/12/30 11:23:14;;;;;;;11.35;2.65;;;8.00;99.90;;;;;;5071027;28;20577;-77
2023/12/30 11:25:43;;;;;;;16.65;3.08;;;8.00;99.90;;;;;;5070796;28;20093;-73
2023/12/30 11:28:22;;;;;;;15.38;2.70;;;8.00;99.90;;;;;;5071373;28;20056;-72
2023/12/30 11:30:59;;;;;;;11.50;2.47;;;8.10;99.90;;;;;;5070846;28;20048;-72
2023/12/30 11:33:25;;;;;;;10.23;2.28;;;8.00;99.90;;;;;;5071800;28;20602;-72
2023/12/30 11:35:54;;;;;;;8.68;1.95;;;8.00;99.90;;;;;;5071819;28;20067;-72
2023/12/30 11:38:20;;;;;;;13.27;2.63;;;8.00;99.90;;;;;;5074910;28;20158;-73
2023/12/30 11:40:57;;;;;;;12.68;2.55;;;8.10;99.90;;;;;;5058273;28;20137;-72
2023/12/30 11:43:25;;;;;;;11.52;2.45;;;8.10;99.90;;;;;;5075375;28;20098;-72
2023/12/30 11:45:52;;;;;;;10.10;2.75;;;8.10;99.90;;;;;;5075301;28;20048;-72
2023/12/30 11:48:18;;;;;;;11.68;2.53;;;8.10;99.90;;;;;;5074852;28;20045;-72
2023/12/30 11:50:43;;;;;;;12.18;2.53;;;8.00;99.90;;;;;;5074237;28;20055;-72
2023/12/30 11:53:09;;;;;;;8.45;2.28;;;8.10;99.90;;;;;;5075821;28;20047;-72
2023/12/30 11:55:35;;;;;;;13.55;2.53;;;8.10;99.90;;;;;;5074722;28;20139;-72
2023/12/30 11:58:00;;;;;;;10.35;2.65;;;8.10;99.90;;;;;;5075533;28;20364;-72
2023/12/30 12:00:27;;;;;;;9.73;2.50;;;8.20;99.90;;;;;;5075656;28;20102;-74
2023/12/30 12:02:54;;;;;;;9.52;2.40;;;8.20;99.90;;;;;;5075612;28;20084;-72
2023/12/30 12:05:20;;;;;;;12.15;2.97;;;8.30;99.90;;;;;;5074978;28;20236;-72
2023/12/30 12:07:46;;;;;;;13.48;2.70;;;8.30;99.90;;;;;;5074431;28;20633;-72
2023/12/30 12:10:12;;;;;;;14.57;2.70;;;8.30;99.90;;;;;;5075833;28;20048;-72
2023/12/30 12:12:39;;;;;;;11.27;2.83;;;8.30;99.90;;;;;;5074569;28;20044;-79
2023/12/30 12:15:08;;;;;;;11.20;2.47;;;8.30;99.90;;;;;;5074226;28;20550;-72
2023/12/30 12:17:35;;;;;;;12.43;2.72;;;8.30;99.90;;;;;;5074304;28;20117;-72
2023/12/30 12:20:04;;;;;;;11.05;2.85;;;8.20;99.90;;;;;;5075158;28;20047;-72
2023/12/30 12:22:30;;;;;;;9.10;2.70;;;8.10;99.90;;;;;;5073983;28;20456;-78
2023/12/30 12:24:56;;;;;;;10.05;3.13;;;8.10;99.90;;;;;;5077284;28;20119;-83
2023/12/30 12:27:23;;;;;;;9.10;2.28;;;8.00;99.90;;;;;;5057834;28;20181;-82
2023/12/30 12:29:50;;;;;;;11.73;2.25;;;8.00;99.90;;;;;;5073489;28;20044;-80
2023/12/30 12:32:20;;;;;;;13.55;2.58;;;7.90;99.90;;;;;;5074234;28;20056;-77
2023/12/30 12:34:47;;;;;;;8.73;2.58;;;8.00;99.90;;;;;;5057187;28;20533;-80
2023/12/30 12:37:16;;;;;;;15.40;3.05;;;7.90;99.90;;;;;;5059444;28;20504;-79
2023/12/30 12:39:43;;;;;;;9.45;2.63;;;7.90;99.90;;;;;;5075406;28;20189;-81
2023/12/30 12:42:14;;;;;;;8.50;2.95;;;7.90;99.90;;;;;;5073299;28;20105;-78
2023/12/30 12:44:41;;;;;;;13.52;2.60;;;7.80;99.90;;;;;;5073630;28;20041;-77